Armington, IL (61721)

3:44 PM CST on February 07, 2016 (GMT -0600)
BFE Armington | | Change Station
CLOSE
Current Station
Personal Weather Station
Location: Armington, IL
Elevation: 627 ft
Nearby Weather Stations

Elev 627 ft 40.34 °N, 89.31 °W | Updated 1 minute ago

Mostly Cloudy
Mostly Cloudy
45.5 °F
Feels Like 42 °F
N
6.3
Wind Variable Wind from West

Today
High -- | Low -- °F
--% Chance of Precip.
Yesterday
High -- | Low -- °F
Precip. -- in
Pressure 29.84 in
Visibility 10.0 miles
Clouds Clear
Windchill 42 °F
Dew Point 36 °F
Humidity 68%
Rainfall 0.00 in
Snow Depth Not available.
7:00 AM 5:22 PM
Waning Crescent, 1% visible
METAR KAAA 072135Z AUTO 26006KT 10SM CLR 09/01 A2984 RMK AO2 T00870008
Pressure 29.84 in
Visibility 10.0 miles
Clouds Clear
Windchill 42 °F
Dew Point 36 °F
Humidity 68%
Rainfall 0.00 in
Snow Depth Not available.
7:00 AM 5:22 PM
Waning Crescent, 1% visible
METAR KAAA 072135Z AUTO 26006KT 10SM CLR 09/01 A2984 RMK AO2 T00870008

10-Day Weather Forecast

Almanac

Astronomy

Feb. 07, 2016 Rise Set
Actual Time
Civil Twilight
Nautical Twilight
Astronomical Twilight
Moon
Length of Visible Light
Length of Day
Tomorrow will be .
, % of the Moon is Illuminated

Today's Extremes

State Highs State Lows

Community

WunderPhotos

Upload Photos

1,891,304 photos uploaded!

WunderBlog® & News

Nearby

Air Quality

  Air Quality AQ Index Pollutant
Not available.

Snow Depth

Station Depth Elevation

Earthquake Activity

City Distance Mag. Time & Date
Minimum magnitude displayed is 2.5.

Coastal Water Temperatures

Place Temperature

Stations

Nearby Weather Stations

Station Location Temp. Windchill Dew Point Humidity Wind Precip. Elev Updated Type
                   

Watches & Warnings

There are currently no watches in effect.